Alexander, Canada
Current Conditions -  °F | °C
As of 11:00 AM on Sunday 21 Dec 2014 (Local Time) from CYBR Reporting Station
Moderate Fog Moderate Fog  
Wind Chill: 20°   Ceiling: 100
Heat Index: 27°   Visibility: 0.12mi
Dew Point: 27°   Wind: 6mph
Humidity: 100%   Direction: 140°SE
Pressure: 29.57"   Gusts: NA
Location:  49.82°N, 100.3°W
Report Text: CYBR 211700Z 14005KT 120V190 1/8SM FZFG VV001 M03/M03 A2957 RMK FG8 SLP037
Loading
Personal Weather Stations






























Interactive Weather Map New forecast layout! Learn more

10-Day Weather Forecast

Advertisements
Track Severe Weather on mobile